sensor_id;sensor_type;location;lat;lon;timestamp;temperature;humidity
23556;DHT22;11956;53.184;8.578;2023-08-07T00:00:00;15.20;99.90
23556;DHT22;11956;53.184;8.578;2023-08-07T00:03:00;15.30;99.90
23556;DHT22;11956;53.184;8.578;2023-08-07T00:06:01;15.30;99.90
23556;DHT22;11956;53.184;8.578;2023-08-07T00:09:02;15.30;99.90
23556;DHT22;11956;53.184;8.578;2023-08-07T00:12:03;15.40;99.90
23556;DHT22;11956;53.184;8.578;2023-08-07T00:15:05;15.40;99.90
23556;DHT22;11956;53.184;8.578;2023-08-07T00:18:06;15.30;99.90
23556;DHT22;11956;53.184;8.578;2023-08-07T00:21:07;15.40;99.90
23556;DHT22;11956;53.184;8.578;2023-08-07T00:24:08;15.30;99.90
23556;DHT22;11956;53.184;8.578;2023-08-07T00:27:08;15.30;99.90
23556;DHT22;11956;53.184;8.578;2023-08-07T00:30:11;15.30;99.90
23556;DHT22;11956;53.184;8.578;2023-08-07T00:33:12;15.30;99.90
23556;DHT22;11956;53.184;8.578;2023-08-07T00:36:13;15.30;99.90
23556;DHT22;11956;53.184;8.578;2023-08-07T00:39:14;15.20;99.90
23556;DHT22;11956;53.184;8.578;2023-08-07T00:42:14;15.20;99.90
23556;DHT22;11956;53.184;8.578;2023-08-07T00:45:15;15.30;99.90
23556;DHT22;11956;53.184;8.578;2023-08-07T00:48:18;15.20;99.90
23556;DHT22;11956;53.184;8.578;2023-08-07T00:51:19;15.30;99.90
23556;DHT22;11956;53.184;8.578;2023-08-07T00:54:21;15.20;99.90
23556;DHT22;11956;53.184;8.578;2023-08-07T00:57:22;15.20;99.90
23556;DHT22;11956;53.184;8.578;2023-08-07T01:00:26;15.20;99.90
23556;DHT22;11956;53.184;8.578;2023-08-07T01:03:27;15.20;99.90
23556;DHT22;11956;53.184;8.578;2023-08-07T01:06:28;15.20;99.90
23556;DHT22;11956;53.184;8.578;2023-08-07T01:09:29;15.20;99.90
23556;DHT22;11956;53.184;8.578;2023-08-07T01:12:36;15.20;99.90
23556;DHT22;11956;53.184;8.578;2023-08-07T01:15:44;15.20;99.90
23556;DHT22;11956;53.184;8.578;2023-08-07T01:18:46;15.20;99.90
23556;DHT22;11956;53.184;8.578;2023-08-07T01:21:48;15.20;99.90
23556;DHT22;11956;53.184;8.578;2023-08-07T01:24:50;15.20;99.90
23556;DHT22;11956;53.184;8.578;2023-08-07T01:28:06;15.10;99.90
23556;DHT22;11956;53.184;8.578;2023-08-07T01:31:13;15.00;99.90
23556;DHT22;11956;53.184;8.578;2023-08-07T01:34:17;15.00;99.90
23556;DHT22;11956;53.184;8.578;2023-08-07T01:37:22;15.00;99.90
23556;DHT22;11956;53.184;8.578;2023-08-07T01:40:23;14.90;99.90
23556;DHT22;11956;53.184;8.578;2023-08-07T01:43:27;14.90;99.90
23556;DHT22;11956;53.184;8.578;2023-08-07T01:46:28;14.80;99.90
23556;DHT22;11956;53.184;8.578;2023-08-07T01:49:29;14.80;99.90
23556;DHT22;11956;53.184;8.578;2023-08-07T01:52:30;14.80;99.90
23556;DHT22;11956;53.184;8.578;2023-08-07T01:55:30;14.80;99.90
23556;DHT22;11956;53.184;8.578;2023-08-07T01:58:31;14.80;99.90
23556;DHT22;11956;53.184;8.578;2023-08-07T02:01:32;14.70;99.90
23556;DHT22;11956;53.184;8.578;2023-08-07T02:04:33;14.70;99.90
23556;DHT22;11956;53.184;8.578;2023-08-07T02:07:34;14.70;99.90
23556;DHT22;11956;53.184;8.578;2023-08-07T02:10:37;14.70;99.90
23556;DHT22;11956;53.184;8.578;2023-08-07T02:13:38;14.70;99.90
23556;DHT22;11956;53.184;8.578;2023-08-07T02:16:38;14.70;99.90
23556;DHT22;11956;53.184;8.578;2023-08-07T02:19:39;14.70;99.90
23556;DHT22;11956;53.184;8.578;2023-08-07T02:22:40;14.70;99.90
23556;DHT22;11956;53.184;8.578;2023-08-07T02:25:41;14.70;99.90
23556;DHT22;11956;53.184;8.578;2023-08-07T02:28:42;14.70;99.90
23556;DHT22;11956;53.184;8.578;2023-08-07T02:31:43;14.70;99.90
23556;DHT22;11956;53.184;8.578;2023-08-07T02:34:44;14.70;99.90
23556;DHT22;11956;53.184;8.578;2023-08-07T02:37:45;14.70;99.90
23556;DHT22;11956;53.184;8.578;2023-08-07T02:40:46;14.70;99.90
23556;DHT22;11956;53.184;8.578;2023-08-07T02:43:47;14.70;99.90
23556;DHT22;11956;53.184;8.578;2023-08-07T02:46:47;14.70;99.90
23556;DHT22;11956;53.184;8.578;2023-08-07T02:49:48;14.80;99.90
23556;DHT22;11956;53.184;8.578;2023-08-07T02:52:49;14.80;99.90
23556;DHT22;11956;53.184;8.578;2023-08-07T02:55:50;14.80;99.90
23556;DHT22;11956;53.184;8.578;2023-08-07T02:58:51;14.80;99.90
23556;DHT22;11956;53.184;8.578;2023-08-07T03:01:52;14.80;99.90
23556;DHT22;11956;53.184;8.578;2023-08-07T03:04:52;14.90;99.90
23556;DHT22;11956;53.184;8.578;2023-08-07T03:07:53;14.90;99.90
23556;DHT22;11956;53.184;8.578;2023-08-07T03:10:55;14.90;99.90
23556;DHT22;11956;53.184;8.578;2023-08-07T03:13:58;14.90;99.90
23556;DHT22;11956;53.184;8.578;2023-08-07T03:16:59;14.80;99.90
23556;DHT22;11956;53.184;8.578;2023-08-07T03:20:00;14.90;99.90
23556;DHT22;11956;53.184;8.578;2023-08-07T03:23:01;14.90;99.90
23556;DHT22;11956;53.184;8.578;2023-08-07T03:26:07;14.90;99.90
23556;DHT22;11956;53.184;8.578;2023-08-07T03:29:09;15.00;99.90
23556;DHT22;11956;53.184;8.578;2023-08-07T03:32:12;15.00;99.90
23556;DHT22;11956;53.184;8.578;2023-08-07T03:35:13;15.00;99.90
23556;DHT22;11956;53.184;8.578;2023-08-07T03:38:14;15.00;99.90
23556;DHT22;11956;53.184;8.578;2023-08-07T03:41:15;15.00;99.90
23556;DHT22;11956;53.184;8.578;2023-08-07T03:44:17;14.90;99.90
23556;DHT22;11956;53.184;8.578;2023-08-07T03:47:18;14.80;99.90
23556;DHT22;11956;53.184;8.578;2023-08-07T03:50:19;14.70;99.90
23556;DHT22;11956;53.184;8.578;2023-08-07T03:53:20;14.70;99.90
23556;DHT22;11956;53.184;8.578;2023-08-07T03:56:22;14.70;99.90
23556;DHT22;11956;53.184;8.578;2023-08-07T03:59:23;14.70;99.90
23556;DHT22;11956;53.184;8.578;2023-08-07T04:02:24;14.60;99.90
23556;DHT22;11956;53.184;8.578;2023-08-07T04:05:25;14.50;99.90
23556;DHT22;11956;53.184;8.578;2023-08-07T04:08:26;14.50;99.90
23556;DHT22;11956;53.184;8.578;2023-08-07T04:11:27;14.50;99.90
23556;DHT22;11956;53.184;8.578;2023-08-07T04:14:28;14.50;99.90
23556;DHT22;11956;53.184;8.578;2023-08-07T04:17:29;14.50;99.90
23556;DHT22;11956;53.184;8.578;2023-08-07T04:20:30;14.50;99.90
23556;DHT22;11956;53.184;8.578;2023-08-07T04:23:32;14.50;99.90
23556;DHT22;11956;53.184;8.578;2023-08-07T04:26:33;14.40;99.90
23556;DHT22;11956;53.184;8.578;2023-08-07T04:29:34;14.40;99.90
23556;DHT22;11956;53.184;8.578;2023-08-07T04:32:35;14.30;99.90
23556;DHT22;11956;53.184;8.578;2023-08-07T04:35:36;14.40;99.90
23556;DHT22;11956;53.184;8.578;2023-08-07T04:38:37;14.40;99.90
23556;DHT22;11956;53.184;8.578;2023-08-07T04:41:38;14.40;99.90
23556;DHT22;11956;53.184;8.578;2023-08-07T04:44:39;14.40;99.90
23556;DHT22;11956;53.184;8.578;2023-08-07T04:47:39;14.40;99.90
23556;DHT22;11956;53.184;8.578;2023-08-07T04:50:41;14.40;99.90
23556;DHT22;11956;53.184;8.578;2023-08-07T04:53:42;14.40;99.90
23556;DHT22;11956;53.184;8.578;2023-08-07T04:56:43;14.30;99.90
23556;DHT22;11956;53.184;8.578;2023-08-07T04:59:44;14.30;99.90
23556;DHT22;11956;53.184;8.578;2023-08-07T05:02:45;14.40;99.90
23556;DHT22;11956;53.184;8.578;2023-08-07T05:05:46;14.40;99.90
23556;DHT22;11956;53.184;8.578;2023-08-07T05:08:47;14.40;99.90
23556;DHT22;11956;53.184;8.578;2023-08-07T05:11:48;14.40;99.90
23556;DHT22;11956;53.184;8.578;2023-08-07T05:14:49;14.50;99.90
23556;DHT22;11956;53.184;8.578;2023-08-07T05:17:50;14.50;99.90
23556;DHT22;11956;53.184;8.578;2023-08-07T05:20:52;14.60;99.90
23556;DHT22;11956;53.184;8.578;2023-08-07T05:23:52;14.60;99.90
23556;DHT22;11956;53.184;8.578;2023-08-07T05:26:55;14.60;99.90
23556;DHT22;11956;53.184;8.578;2023-08-07T05:29:56;14.70;99.90
23556;DHT22;11956;53.184;8.578;2023-08-07T05:32:57;14.70;99.90
23556;DHT22;11956;53.184;8.578;2023-08-07T05:35:57;14.80;99.90
23556;DHT22;11956;53.184;8.578;2023-08-07T05:38:58;14.90;99.90
23556;DHT22;11956;53.184;8.578;2023-08-07T05:41:59;14.90;99.90
23556;DHT22;11956;53.184;8.578;2023-08-07T05:45:00;15.00;99.90
23556;DHT22;11956;53.184;8.578;2023-08-07T05:48:01;15.10;99.90
23556;DHT22;11956;53.184;8.578;2023-08-07T05:51:02;15.10;99.90
23556;DHT22;11956;53.184;8.578;2023-08-07T05:54:03;15.20;99.90
23556;DHT22;11956;53.184;8.578;2023-08-07T05:57:04;15.20;99.90
23556;DHT22;11956;53.184;8.578;2023-08-07T06:00:05;15.30;99.90
23556;DHT22;11956;53.184;8.578;2023-08-07T06:03:14;15.50;99.90
23556;DHT22;11956;53.184;8.578;2023-08-07T06:06:15;15.70;99.90
23556;DHT22;11956;53.184;8.578;2023-08-07T06:09:16;15.80;99.90
23556;DHT22;11956;53.184;8.578;2023-08-07T06:12:16;16.20;99.90
23556;DHT22;11956;53.184;8.578;2023-08-07T06:15:17;16.70;99.90
23556;DHT22;11956;53.184;8.578;2023-08-07T06:18:18;16.90;99.90
23556;DHT22;11956;53.184;8.578;2023-08-07T06:21:19;16.70;99.90
23556;DHT22;11956;53.184;8.578;2023-08-07T06:24:20;17.70;99.90
23556;DHT22;11956;53.184;8.578;2023-08-07T06:27:21;19.30;99.90
23556;DHT22;11956;53.184;8.578;2023-08-07T06:30:22;20.70;99.90
23556;DHT22;11956;53.184;8.578;2023-08-07T06:33:23;21.30;99.90
23556;DHT22;11956;53.184;8.578;2023-08-07T06:36:24;19.90;99.90
23556;DHT22;11956;53.184;8.578;2023-08-07T06:39:25;18.30;99.90
23556;DHT22;11956;53.184;8.578;2023-08-07T06:42:25;17.40;99.90
23556;DHT22;11956;53.184;8.578;2023-08-07T06:45:26;16.80;99.90
23556;DHT22;11956;53.184;8.578;2023-08-07T06:48:27;16.60;99.90
23556;DHT22;11956;53.184;8.578;2023-08-07T06:51:28;16.70;99.90
23556;DHT22;11956;53.184;8.578;2023-08-07T06:54:29;16.70;99.90
23556;DHT22;11956;53.184;8.578;2023-08-07T06:57:29;16.80;99.90
23556;DHT22;11956;53.184;8.578;2023-08-07T07:00:30;16.90;99.90
23556;DHT22;11956;53.184;8.578;2023-08-07T07:03:32;17.20;99.90
23556;DHT22;11956;53.184;8.578;2023-08-07T07:06:33;17.20;99.90
23556;DHT22;11956;53.184;8.578;2023-08-07T07:09:34;17.40;99.90
23556;DHT22;11956;53.184;8.578;2023-08-07T07:12:34;17.70;99.90
23556;DHT22;11956;53.184;8.578;2023-08-07T07:15:35;17.60;99.90
23556;DHT22;11956;53.184;8.578;2023-08-07T07:18:36;17.50;99.90
23556;DHT22;11956;53.184;8.578;2023-08-07T07:21:37;17.80;99.90
23556;DHT22;11956;53.184;8.578;2023-08-07T07:24:38;18.30;99.90
23556;DHT22;11956;53.184;8.578;2023-08-07T07:27:39;19.00;99.90
23556;DHT22;11956;53.184;8.578;2023-08-07T07:30:40;19.10;99.90
23556;DHT22;11956;53.184;8.578;2023-08-07T07:33:41;19.00;99.90
23556;DHT22;11956;53.184;8.578;2023-08-07T07:36:42;19.10;99.90
23556;DHT22;11956;53.184;8.578;2023-08-07T07:39:43;19.00;99.90
23556;DHT22;11956;53.184;8.578;2023-08-07T07:42:44;20.40;99.90
23556;DHT22;11956;53.184;8.578;2023-08-07T07:45:45;21.50;99.90
23556;DHT22;11956;53.184;8.578;2023-08-07T07:48:48;22.20;99.90
23556;DHT22;11956;53.184;8.578;2023-08-07T07:51:48;21.80;99.90
23556;DHT22;11956;53.184;8.578;2023-08-07T07:54:50;21.10;99.90
23556;DHT22;11956;53.184;8.578;2023-08-07T07:57:51;19.90;99.90
23556;DHT22;11956;53.184;8.578;2023-08-07T08:00:52;18.90;99.90
23556;DHT22;11956;53.184;8.578;2023-08-07T08:03:54;18.70;99.90
23556;DHT22;11956;53.184;8.578;2023-08-07T08:06:55;20.30;99.90
23556;DHT22;11956;53.184;8.578;2023-08-07T08:09:56;22.70;99.90
23556;DHT22;11956;53.184;8.578;2023-08-07T08:12:57;22.50;99.90
23556;DHT22;11956;53.184;8.578;2023-08-07T08:15:58;21.50;99.90
23556;DHT22;11956;53.184;8.578;2023-08-07T08:18:59;21.20;99.90
23556;DHT22;11956;53.184;8.578;2023-08-07T08:22:00;21.40;99.90
23556;DHT22;11956;53.184;8.578;2023-08-07T08:25:02;20.90;99.90
23556;DHT22;11956;53.184;8.578;2023-08-07T08:28:05;20.50;99.90
23556;DHT22;11956;53.184;8.578;2023-08-07T08:31:06;20.20;99.90
23556;DHT22;11956;53.184;8.578;2023-08-07T08:34:07;19.90;99.90
23556;DHT22;11956;53.184;8.578;2023-08-07T08:37:08;19.90;99.90
23556;DHT22;11956;53.184;8.578;2023-08-07T08:40:11;20.40;99.90
23556;DHT22;11956;53.184;8.578;2023-08-07T08:43:18;21.00;99.90
23556;DHT22;11956;53.184;8.578;2023-08-07T08:46:20;21.10;99.90
23556;DHT22;11956;53.184;8.578;2023-08-07T08:49:30;21.80;99.90
23556;DHT22;11956;53.184;8.578;2023-08-07T08:52:36;21.10;99.90
23556;DHT22;11956;53.184;8.578;2023-08-07T08:55:39;20.40;99.90
23556;DHT22;11956;53.184;8.578;2023-08-07T08:58:43;19.30;99.90
23556;DHT22;11956;53.184;8.578;2023-08-07T09:01:45;18.20;99.90
23556;DHT22;11956;53.184;8.578;2023-08-07T09:04:47;17.10;99.90
23556;DHT22;11956;53.184;8.578;2023-08-07T09:07:49;16.20;99.90
23556;DHT22;11956;53.184;8.578;2023-08-07T09:10:50;16.10;99.90
23556;DHT22;11956;53.184;8.578;2023-08-07T09:13:53;15.90;99.90
23556;DHT22;11956;53.184;8.578;2023-08-07T09:16:55;16.20;99.90
23556;DHT22;11956;53.184;8.578;2023-08-07T09:19:56;16.90;99.90
23556;DHT22;11956;53.184;8.578;2023-08-07T09:22:57;19.10;99.90
23556;DHT22;11956;53.184;8.578;2023-08-07T09:26:02;21.60;99.90
23556;DHT22;11956;53.184;8.578;2023-08-07T09:29:04;23.30;99.90
23556;DHT22;11956;53.184;8.578;2023-08-07T09:32:12;23.40;99.90
23556;DHT22;11956;53.184;8.578;2023-08-07T09:35:14;23.50;99.90
23556;DHT22;11956;53.184;8.578;2023-08-07T09:38:15;23.70;99.90
23556;DHT22;11956;53.184;8.578;2023-08-07T09:41:19;24.00;99.90
23556;DHT22;11956;53.184;8.578;2023-08-07T09:44:21;23.30;99.90
23556;DHT22;11956;53.184;8.578;2023-08-07T09:47:22;22.50;99.90
23556;DHT22;11956;53.184;8.578;2023-08-07T09:50:24;21.00;99.90
23556;DHT22;11956;53.184;8.578;2023-08-07T09:53:30;19.50;99.90
23556;DHT22;11956;53.184;8.578;2023-08-07T09:56:31;19.00;99.90
23556;DHT22;11956;53.184;8.578;2023-08-07T09:59:33;18.60;99.90
23556;DHT22;11956;53.184;8.578;2023-08-07T10:02:35;18.60;99.90
23556;DHT22;11956;53.184;8.578;2023-08-07T10:05:36;18.70;99.90
23556;DHT22;11956;53.184;8.578;2023-08-07T10:08:38;19.00;99.90
23556;DHT22;11956;53.184;8.578;2023-08-07T10:11:41;20.00;99.90
23556;DHT22;11956;53.184;8.578;2023-08-07T10:14:42;21.50;99.90
23556;DHT22;11956;53.184;8.578;2023-08-07T10:17:45;21.80;99.90
23556;DHT22;11956;53.184;8.578;2023-08-07T10:20:46;21.30;99.90
23556;DHT22;11956;53.184;8.578;2023-08-07T10:23:49;21.00;99.90
23556;DHT22;11956;53.184;8.578;2023-08-07T10:26:54;21.00;99.90
23556;DHT22;11956;53.184;8.578;2023-08-07T10:29:57;20.40;99.90
23556;DHT22;11956;53.184;8.578;2023-08-07T10:33:01;19.50;99.90
23556;DHT22;11956;53.184;8.578;2023-08-07T10:36:08;18.10;99.90
23556;DHT22;11956;53.184;8.578;2023-08-07T10:39:12;17.30;99.90
23556;DHT22;11956;53.184;8.578;2023-08-07T10:42:16;17.20;99.90
23556;DHT22;11956;53.184;8.578;2023-08-07T10:45:20;17.30;99.90
23556;DHT22;11956;53.184;8.578;2023-08-07T10:48:23;17.30;99.90
23556;DHT22;11956;53.184;8.578;2023-08-07T10:51:29;17.30;99.90
23556;DHT22;11956;53.184;8.578;2023-08-07T10:54:49;17.60;99.90
23556;DHT22;11956;53.184;8.578;2023-08-07T10:57:50;18.30;99.90
23556;DHT22;11956;53.184;8.578;2023-08-07T11:04:18;18.90;99.90
23556;DHT22;11956;53.184;8.578;2023-08-07T11:07:26;19.40;99.90
23556;DHT22;11956;53.184;8.578;2023-08-07T11:10:27;20.10;99.90
23556;DHT22;11956;53.184;8.578;2023-08-07T11:13:30;20.60;99.90
23556;DHT22;11956;53.184;8.578;2023-08-07T11:16:33;20.70;99.90
23556;DHT22;11956;53.184;8.578;2023-08-07T11:19:35;20.20;99.90
23556;DHT22;11956;53.184;8.578;2023-08-07T11:22:37;19.80;99.90
23556;DHT22;11956;53.184;8.578;2023-08-07T11:25:38;19.30;99.90
23556;DHT22;11956;53.184;8.578;2023-08-07T11:28:39;19.30;99.90
23556;DHT22;11956;53.184;8.578;2023-08-07T11:31:40;19.40;99.90
23556;DHT22;11956;53.184;8.578;2023-08-07T11:34:48;19.50;99.90
23556;DHT22;11956;53.184;8.578;2023-08-07T11:37:50;19.70;99.90
23556;DHT22;11956;53.184;8.578;2023-08-07T11:40:54;19.60;99.90
23556;DHT22;11956;53.184;8.578;2023-08-07T11:43:57;19.70;99.90
23556;DHT22;11956;53.184;8.578;2023-08-07T11:47:00;19.70;99.90
23556;DHT22;11956;53.184;8.578;2023-08-07T11:50:02;20.00;99.90
23556;DHT22;11956;53.184;8.578;2023-08-07T11:53:04;20.30;99.90
23556;DHT22;11956;53.184;8.578;2023-08-07T11:56:13;20.10;99.90
23556;DHT22;11956;53.184;8.578;2023-08-07T11:59:18;20.00;99.90
23556;DHT22;11956;53.184;8.578;2023-08-07T12:02:24;19.60;99.90
23556;DHT22;11956;53.184;8.578;2023-08-07T12:05:26;19.30;99.90
23556;DHT22;11956;53.184;8.578;2023-08-07T12:08:31;19.10;99.90
23556;DHT22;11956;53.184;8.578;2023-08-07T12:11:35;18.90;99.90
23556;DHT22;11956;53.184;8.578;2023-08-07T12:14:36;18.90;99.90
23556;DHT22;11956;53.184;8.578;2023-08-07T12:17:37;19.20;99.90
23556;DHT22;11956;53.184;8.578;2023-08-07T12:20:38;19.10;99.90
23556;DHT22;11956;53.184;8.578;2023-08-07T12:23:39;19.30;99.90
23556;DHT22;11956;53.184;8.578;2023-08-07T12:26:40;19.80;99.90
23556;DHT22;11956;53.184;8.578;2023-08-07T12:29:41;19.90;99.90
23556;DHT22;11956;53.184;8.578;2023-08-07T12:32:42;19.70;99.90
23556;DHT22;11956;53.184;8.578;2023-08-07T12:35:43;19.90;99.90
23556;DHT22;11956;53.184;8.578;2023-08-07T12:38:45;19.70;99.90
23556;DHT22;11956;53.184;8.578;2023-08-07T12:41:47;19.90;99.90
23556;DHT22;11956;53.184;8.578;2023-08-07T12:44:49;19.80;99.90
23556;DHT22;11956;53.184;8.578;2023-08-07T12:47:50;19.90;99.90
23556;DHT22;11956;53.184;8.578;2023-08-07T12:50:51;19.90;99.90
23556;DHT22;11956;53.184;8.578;2023-08-07T12:53:52;19.80;99.90
23556;DHT22;11956;53.184;8.578;2023-08-07T12:56:53;19.50;99.90
23556;DHT22;11956;53.184;8.578;2023-08-07T12:59:55;19.00;99.90
23556;DHT22;11956;53.184;8.578;2023-08-07T13:02:56;18.80;99.90
23556;DHT22;11956;53.184;8.578;2023-08-07T13:05:57;18.40;99.90
23556;DHT22;11956;53.184;8.578;2023-08-07T13:08:58;17.80;99.90
23556;DHT22;11956;53.184;8.578;2023-08-07T13:12:01;17.80;99.90
23556;DHT22;11956;53.184;8.578;2023-08-07T13:15:03;17.90;99.90
23556;DHT22;11956;53.184;8.578;2023-08-07T13:18:05;18.40;99.90
23556;DHT22;11956;53.184;8.578;2023-08-07T13:25:15;19.40;99.90
23556;DHT22;11956;53.184;8.578;2023-08-07T13:28:16;19.00;99.90
23556;DHT22;11956;53.184;8.578;2023-08-07T13:31:18;18.70;99.90
23556;DHT22;11956;53.184;8.578;2023-08-07T13:34:19;18.80;99.90
23556;DHT22;11956;53.184;8.578;2023-08-07T13:37:20;18.90;99.90
23556;DHT22;11956;53.184;8.578;2023-08-07T13:40:21;18.90;99.90
23556;DHT22;11956;53.184;8.578;2023-08-07T13:43:22;18.90;99.90
23556;DHT22;11956;53.184;8.578;2023-08-07T13:46:23;18.70;99.90
23556;DHT22;11956;53.184;8.578;2023-08-07T13:49:24;18.40;99.90
23556;DHT22;11956;53.184;8.578;2023-08-07T13:52:26;18.20;99.90
23556;DHT22;11956;53.184;8.578;2023-08-07T13:55:27;18.30;99.90
23556;DHT22;11956;53.184;8.578;2023-08-07T13:58:28;18.60;99.90
23556;DHT22;11956;53.184;8.578;2023-08-07T14:01:29;18.70;99.90
23556;DHT22;11956;53.184;8.578;2023-08-07T14:04:30;18.80;99.90
23556;DHT22;11956;53.184;8.578;2023-08-07T14:07:31;18.40;99.90
23556;DHT22;11956;53.184;8.578;2023-08-07T14:10:32;18.00;99.90
23556;DHT22;11956;53.184;8.578;2023-08-07T14:13:33;17.30;99.90
23556;DHT22;11956;53.184;8.578;2023-08-07T14:16:34;16.90;99.90
23556;DHT22;11956;53.184;8.578;2023-08-07T14:19:35;16.60;99.90
23556;DHT22;11956;53.184;8.578;2023-08-07T14:22:36;16.80;99.90
23556;DHT22;11956;53.184;8.578;2023-08-07T14:25:38;17.20;99.90
23556;DHT22;11956;53.184;8.578;2023-08-07T14:28:39;17.60;99.90
23556;DHT22;11956;53.184;8.578;2023-08-07T14:31:40;17.70;99.90
23556;DHT22;11956;53.184;8.578;2023-08-07T14:34:41;17.80;99.90
23556;DHT22;11956;53.184;8.578;2023-08-07T14:37:42;17.60;99.90
23556;DHT22;11956;53.184;8.578;2023-08-07T14:40:44;17.60;99.90
23556;DHT22;11956;53.184;8.578;2023-08-07T14:43:45;17.80;99.90
23556;DHT22;11956;53.184;8.578;2023-08-07T14:46:47;17.90;99.90
23556;DHT22;11956;53.184;8.578;2023-08-07T14:49:48;18.00;99.90
23556;DHT22;11956;53.184;8.578;2023-08-07T14:52:49;18.30;99.90
23556;DHT22;11956;53.184;8.578;2023-08-07T14:55:50;18.50;99.90
23556;DHT22;11956;53.184;8.578;2023-08-07T14:58:51;18.60;99.90
23556;DHT22;11956;53.184;8.578;2023-08-07T15:01:52;18.50;99.90
23556;DHT22;11956;53.184;8.578;2023-08-07T15:04:53;18.70;99.90
23556;DHT22;11956;53.184;8.578;2023-08-07T15:07:54;18.60;99.90
23556;DHT22;11956;53.184;8.578;2023-08-07T15:10:55;18.30;99.90
23556;DHT22;11956;53.184;8.578;2023-08-07T15:13:56;17.80;99.90
23556;DHT22;11956;53.184;8.578;2023-08-07T15:16:57;16.80;99.90
23556;DHT22;11956;53.184;8.578;2023-08-07T15:19:58;16.30;99.90
23556;DHT22;11956;53.184;8.578;2023-08-07T15:22:59;16.20;99.90
23556;DHT22;11956;53.184;8.578;2023-08-07T15:26:00;16.20;99.90
23556;DHT22;11956;53.184;8.578;2023-08-07T15:29:01;16.20;99.90
23556;DHT22;11956;53.184;8.578;2023-08-07T15:32:02;16.40;99.90
23556;DHT22;11956;53.184;8.578;2023-08-07T15:35:04;16.70;99.90
23556;DHT22;11956;53.184;8.578;2023-08-07T15:38:05;16.90;99.90
23556;DHT22;11956;53.184;8.578;2023-08-07T15:41:06;17.00;99.90
23556;DHT22;11956;53.184;8.578;2023-08-07T15:44:07;17.10;99.90
23556;DHT22;11956;53.184;8.578;2023-08-07T15:47:09;17.10;99.90
23556;DHT22;11956;53.184;8.578;2023-08-07T15:50:09;17.30;99.90
23556;DHT22;11956;53.184;8.578;2023-08-07T15:53:11;17.40;99.90
23556;DHT22;11956;53.184;8.578;2023-08-07T15:56:11;17.50;99.90
23556;DHT22;11956;53.184;8.578;2023-08-07T15:59:12;17.50;99.90
23556;DHT22;11956;53.184;8.578;2023-08-07T16:02:13;17.30;99.90
23556;DHT22;11956;53.184;8.578;2023-08-07T16:05:14;17.40;99.90
23556;DHT22;11956;53.184;8.578;2023-08-07T16:08:15;17.50;99.90
23556;DHT22;11956;53.184;8.578;2023-08-07T16:11:16;17.60;99.90
23556;DHT22;11956;53.184;8.578;2023-08-07T16:14:17;17.70;99.90
23556;DHT22;11956;53.184;8.578;2023-08-07T16:17:18;17.70;99.90
23556;DHT22;11956;53.184;8.578;2023-08-07T16:20:19;17.80;99.90
23556;DHT22;11956;53.184;8.578;2023-08-07T16:23:21;17.80;99.90
23556;DHT22;11956;53.184;8.578;2023-08-07T16:26:21;17.70;99.90
23556;DHT22;11956;53.184;8.578;2023-08-07T16:29:22;17.60;99.90
23556;DHT22;11956;53.184;8.578;2023-08-07T16:32:23;17.50;99.90
23556;DHT22;11956;53.184;8.578;2023-08-07T16:35:24;17.40;99.90
23556;DHT22;11956;53.184;8.578;2023-08-07T16:38:25;17.20;99.90
23556;DHT22;11956;53.184;8.578;2023-08-07T16:41:26;17.00;99.90
23556;DHT22;11956;53.184;8.578;2023-08-07T16:44:27;16.80;99.90
23556;DHT22;11956;53.184;8.578;2023-08-07T16:47:29;16.50;99.90
23556;DHT22;11956;53.184;8.578;2023-08-07T16:50:30;16.10;99.90
23556;DHT22;11956;53.184;8.578;2023-08-07T16:53:31;16.00;99.90
23556;DHT22;11956;53.184;8.578;2023-08-07T16:56:32;16.00;99.90
23556;DHT22;11956;53.184;8.578;2023-08-07T16:59:33;16.10;99.90
23556;DHT22;11956;53.184;8.578;2023-08-07T17:02:34;16.20;99.90
23556;DHT22;11956;53.184;8.578;2023-08-07T17:05:35;16.40;99.90
23556;DHT22;11956;53.184;8.578;2023-08-07T17:08:36;16.50;99.90
23556;DHT22;11956;53.184;8.578;2023-08-07T17:11:38;16.60;99.90
23556;DHT22;11956;53.184;8.578;2023-08-07T17:14:38;16.70;99.90
23556;DHT22;11956;53.184;8.578;2023-08-07T17:17:39;16.80;99.90
23556;DHT22;11956;53.184;8.578;2023-08-07T17:20:40;16.80;99.90
23556;DHT22;11956;53.184;8.578;2023-08-07T17:23:41;16.80;99.90
23556;DHT22;11956;53.184;8.578;2023-08-07T17:26:43;16.90;99.90
23556;DHT22;11956;53.184;8.578;2023-08-07T17:29:44;16.90;99.90
23556;DHT22;11956;53.184;8.578;2023-08-07T17:32:45;16.90;99.90
23556;DHT22;11956;53.184;8.578;2023-08-07T17:35:46;16.90;99.90
23556;DHT22;11956;53.184;8.578;2023-08-07T17:38:47;16.90;99.90
23556;DHT22;11956;53.184;8.578;2023-08-07T17:41:48;16.80;99.90
23556;DHT22;11956;53.184;8.578;2023-08-07T17:44:49;16.80;99.90
23556;DHT22;11956;53.184;8.578;2023-08-07T17:47:51;16.70;99.90
23556;DHT22;11956;53.184;8.578;2023-08-07T17:50:52;16.70;99.90
23556;DHT22;11956;53.184;8.578;2023-08-07T17:53:54;16.70;99.90
23556;DHT22;11956;53.184;8.578;2023-08-07T17:56:55;16.60;99.90
23556;DHT22;11956;53.184;8.578;2023-08-07T17:59:56;16.50;99.90
23556;DHT22;11956;53.184;8.578;2023-08-07T18:02:57;16.50;99.90
23556;DHT22;11956;53.184;8.578;2023-08-07T18:05:58;16.60;99.90
23556;DHT22;11956;53.184;8.578;2023-08-07T18:08:59;16.60;99.90
23556;DHT22;11956;53.184;8.578;2023-08-07T18:12:01;16.50;99.90
23556;DHT22;11956;53.184;8.578;2023-08-07T18:15:02;16.40;99.90
23556;DHT22;11956;53.184;8.578;2023-08-07T18:18:04;16.20;99.90
23556;DHT22;11956;53.184;8.578;2023-08-07T18:21:05;16.20;99.90
23556;DHT22;11956;53.184;8.578;2023-08-07T18:24:06;16.20;99.90
23556;DHT22;11956;53.184;8.578;2023-08-07T18:27:07;16.20;99.90
23556;DHT22;11956;53.184;8.578;2023-08-07T18:30:08;16.10;99.90
23556;DHT22;11956;53.184;8.578;2023-08-07T18:33:12;16.10;99.90
23556;DHT22;11956;53.184;8.578;2023-08-07T18:36:13;16.00;99.90
23556;DHT22;11956;53.184;8.578;2023-08-07T18:39:14;15.80;99.90
23556;DHT22;11956;53.184;8.578;2023-08-07T18:42:16;15.60;99.90
23556;DHT22;11956;53.184;8.578;2023-08-07T18:45:17;15.50;99.90
23556;DHT22;11956;53.184;8.578;2023-08-07T18:48:19;15.50;99.90
23556;DHT22;11956;53.184;8.578;2023-08-07T18:51:20;15.40;99.90
23556;DHT22;11956;53.184;8.578;2023-08-07T18:54:21;15.50;99.90
23556;DHT22;11956;53.184;8.578;2023-08-07T18:57:22;15.50;99.90
23556;DHT22;11956;53.184;8.578;2023-08-07T19:00:23;15.50;99.90
23556;DHT22;11956;53.184;8.578;2023-08-07T19:03:24;15.50;99.90
23556;DHT22;11956;53.184;8.578;2023-08-07T19:06:25;15.40;99.90
23556;DHT22;11956;53.184;8.578;2023-08-07T19:09:26;15.30;99.90
23556;DHT22;11956;53.184;8.578;2023-08-07T19:12:27;15.20;99.90